createdAt,value
2022-11-30T00:00:31.769Z,100.00
2022-11-30T00:03:01.691Z,100.00
2022-11-30T00:05:30.606Z,100.00
2022-11-30T00:08:02.316Z,100.00
2022-11-30T00:10:31.872Z,100.00
2022-11-30T00:13:01.355Z,100.00
2022-11-30T00:15:29.991Z,100.00
2022-11-30T00:18:00.206Z,100.00
2022-11-30T00:20:30.274Z,100.00
2022-11-30T00:22:59.812Z,100.00
2022-11-30T00:25:29.362Z,100.00
2022-11-30T00:28:01.986Z,100.00
2022-11-30T00:30:31.490Z,100.00
2022-11-30T00:33:01.046Z,100.00
2022-11-30T00:35:32.125Z,100.00
2022-11-30T00:38:03.493Z,100.00
2022-11-30T00:40:32.942Z,100.00
2022-11-30T00:43:02.541Z,100.00
2022-11-30T00:45:31.159Z,100.00
2022-11-30T00:48:00.584Z,100.00
2022-11-30T00:50:30.077Z,100.00
2022-11-30T00:52:59.636Z,100.00
2022-11-30T00:55:30.536Z,100.00
2022-11-30T00:58:00.072Z,100.00
2022-11-30T01:00:29.987Z,100.00
2022-11-30T01:03:03.045Z,100.00
2022-11-30T01:05:35.304Z,100.00
2022-11-30T01:08:07.927Z,100.00
2022-11-30T01:10:41.941Z,100.00
2022-11-30T01:13:13.329Z,100.00
2022-11-30T01:15:44.804Z,100.00
2022-11-30T01:18:14.263Z,100.00
2022-11-30T01:20:44.033Z,100.00
2022-11-30T01:23:12.859Z,100.00
2022-11-30T01:25:42.341Z,100.00
2022-11-30T01:28:11.879Z,100.00
2022-11-30T01:30:42.137Z,100.00
2022-11-30T01:33:11.686Z,100.00
2022-11-30T01:35:41.133Z,100.00
2022-11-30T01:38:08.871Z,100.00
2022-11-30T01:40:37.534Z,100.00
2022-11-30T01:43:12.411Z,100.00
2022-11-30T01:45:41.204Z,100.00
2022-11-30T01:48:10.208Z,100.00
2022-11-30T01:50:39.110Z,100.00
2022-11-30T01:53:12.669Z,100.00
2022-11-30T01:55:49.451Z,100.00
2022-11-30T01:58:30.764Z,100.00
2022-11-30T02:01:00.753Z,100.00
2022-11-30T02:03:53.452Z,100.00
2022-11-30T02:06:26.482Z,100.00
2022-11-30T02:08:56.102Z,100.00
2022-11-30T02:11:28.089Z,100.00
2022-11-30T02:14:37.896Z,100.00
2022-11-30T02:17:55.257Z,100.00
2022-11-30T02:21:26.595Z,100.00
2022-11-30T02:24:41.535Z,100.00
2022-11-30T02:28:02.740Z,100.00
2022-11-30T02:30:37.096Z,100.00
2022-11-30T02:33:21.499Z,100.00
2022-11-30T02:35:55.233Z,100.00
2022-11-30T02:38:27.365Z,100.00
2022-11-30T02:40:56.033Z,100.00
2022-11-30T02:43:29.154Z,100.00
2022-11-30T02:46:30.067Z,100.00
2022-11-30T02:49:50.715Z,100.00
2022-11-30T02:52:23.075Z,100.00
2022-11-30T02:54:54.467Z,100.00
2022-11-30T02:57:23.202Z,100.00
2022-11-30T02:59:52.145Z,100.00
2022-11-30T03:02:21.649Z,100.00
2022-11-30T03:04:51.373Z,100.00
2022-11-30T03:07:20.891Z,100.00
2022-11-30T03:09:49.613Z,100.00
2022-11-30T03:12:18.318Z,100.00
2022-11-30T03:14:47.145Z,100.00
2022-11-30T03:17:15.533Z,100.00
2022-11-30T03:19:44.474Z,100.00
2022-11-30T03:22:13.150Z,100.00
2022-11-30T03:24:41.803Z,100.00
2022-11-30T03:27:11.018Z,100.00
2022-11-30T03:29:39.748Z,100.00
2022-11-30T03:32:08.523Z,100.00
2022-11-30T03:34:37.976Z,100.00
2022-11-30T03:37:06.662Z,100.00
2022-11-30T03:39:36.083Z,100.00
2022-11-30T03:42:03.947Z,100.00
2022-11-30T03:44:32.631Z,100.00
2022-11-30T03:47:01.386Z,100.00
2022-11-30T03:49:30.035Z,100.00
2022-11-30T03:51:59.521Z,100.00
2022-11-30T03:54:28.267Z,100.00
2022-11-30T03:56:57.689Z,100.00
2022-11-30T03:59:27.192Z,100.00
2022-11-30T04:01:55.883Z,100.00
2022-11-30T04:04:24.627Z,100.00
2022-11-30T04:06:52.388Z,100.00
2022-11-30T04:09:21.137Z,100.00
2022-11-30T04:11:49.842Z,100.00
2022-11-30T04:14:18.628Z,100.00
2022-11-30T04:16:48.084Z,100.00
2022-11-30T04:19:17.523Z,100.00
2022-11-30T04:21:46.188Z,100.00
2022-11-30T04:24:14.854Z,100.00
2022-11-30T04:26:43.758Z,100.00
2022-11-30T04:29:12.588Z,100.00
2022-11-30T04:31:42.181Z,100.00
2022-11-30T04:34:11.648Z,100.00
2022-11-30T04:36:41.214Z,100.00
2022-11-30T04:39:09.924Z,100.00
2022-11-30T04:41:39.956Z,100.00
2022-11-30T04:44:08.700Z,100.00
2022-11-30T04:46:37.942Z,100.00
2022-11-30T04:49:05.768Z,100.00
2022-11-30T04:51:35.181Z,100.00
2022-11-30T04:54:04.867Z,100.00
2022-11-30T04:56:33.511Z,100.00
2022-11-30T04:59:03.326Z,100.00
2022-11-30T05:01:32.192Z,100.00
2022-11-30T05:04:01.851Z,100.00
2022-11-30T05:06:31.343Z,100.00
2022-11-30T05:09:00.292Z,100.00
2022-11-30T05:11:29.048Z,100.00
2022-11-30T05:13:57.732Z,100.00
2022-11-30T05:16:27.269Z,100.00
2022-11-30T05:18:56.000Z,100.00
2022-11-30T05:21:25.486Z,100.00
2022-11-30T05:23:54.472Z,100.00
2022-11-30T05:26:22.324Z,100.00
2022-11-30T05:28:51.755Z,100.00
2022-11-30T05:31:21.363Z,100.00
2022-11-30T05:33:54.513Z,100.00
2022-11-30T05:36:23.967Z,100.00
2022-11-30T05:38:53.722Z,100.00
2022-11-30T05:41:23.339Z,100.00
2022-11-30T05:43:52.075Z,100.00
2022-11-30T05:46:21.549Z,100.00
2022-11-30T05:48:51.343Z,100.00
2022-11-30T05:51:22.124Z,100.00
2022-11-30T05:53:50.761Z,100.00
2022-11-30T05:56:21.942Z,100.00
2022-11-30T05:58:51.424Z,100.00
2022-11-30T06:01:23.335Z,100.00
2022-11-30T06:03:53.463Z,100.00
2022-11-30T06:06:23.795Z,100.00
2022-11-30T06:08:53.248Z,100.00
2022-11-30T06:11:21.914Z,100.00
2022-11-30T06:13:51.512Z,100.00
2022-11-30T06:16:21.014Z,100.00
2022-11-30T06:18:49.748Z,100.00
2022-11-30T06:21:24.106Z,100.00
2022-11-30T06:23:54.181Z,100.00
2022-11-30T06:26:22.998Z,100.00
2022-11-30T06:28:51.683Z,100.00
2022-11-30T06:31:21.266Z,100.00
2022-11-30T06:33:51.562Z,100.00
2022-11-30T06:36:23.377Z,100.00
2022-11-30T06:38:52.782Z,100.00
2022-11-30T06:41:22.983Z,100.00
2022-11-30T06:43:52.906Z,100.00
2022-11-30T06:46:22.398Z,100.00
2022-11-30T06:48:51.955Z,100.00
2022-11-30T06:51:21.417Z,100.00
2022-11-30T06:53:50.876Z,100.00
2022-11-30T06:56:20.387Z,100.00
2022-11-30T06:58:50.254Z,100.00
2022-11-30T07:01:19.829Z,100.00
2022-11-30T07:03:50.052Z,100.00
2022-11-30T07:06:19.640Z,100.00
2022-11-30T07:08:50.372Z,99.27
2022-11-30T07:11:19.934Z,99.43
2022-11-30T07:13:49.467Z,100.00
2022-11-30T07:16:18.189Z,100.00
2022-11-30T07:18:46.866Z,100.00
2022-11-30T07:21:15.522Z,100.00
2022-11-30T07:24:03.655Z,100.00
2022-11-30T07:26:32.369Z,100.00
2022-11-30T07:29:01.081Z,100.00
2022-11-30T07:31:34.888Z,100.00
2022-11-30T07:34:09.926Z,100.00
2022-11-30T07:36:38.591Z,100.00
2022-11-30T07:39:07.358Z,100.00
2022-11-30T07:41:36.863Z,100.00
2022-11-30T07:44:07.203Z,99.04
2022-11-30T07:46:38.871Z,98.51
2022-11-30T07:49:10.115Z,97.83
2022-11-30T07:51:39.651Z,97.23
2022-11-30T07:54:09.256Z,96.83
2022-11-30T07:56:38.775Z,97.06
2022-11-30T07:59:07.437Z,96.52
2022-11-30T08:01:37.598Z,97.27
2022-11-30T08:04:06.505Z,95.18
2022-11-30T08:06:35.979Z,94.20
2022-11-30T08:09:05.749Z,94.08
2022-11-30T08:11:37.174Z,92.72
2022-11-30T08:14:06.217Z,94.04
2022-11-30T08:16:38.616Z,93.72
2022-11-30T08:19:08.090Z,93.25
2022-11-30T08:21:38.310Z,92.31
2022-11-30T08:24:09.711Z,92.02
2022-11-30T08:26:38.331Z,91.24
2022-11-30T08:29:06.891Z,90.55
2022-11-30T08:31:38.316Z,90.29
2022-11-30T08:34:13.098Z,89.41
2022-11-30T08:36:42.900Z,89.85
2022-11-30T08:39:14.153Z,89.89
2022-11-30T08:41:42.864Z,88.31
2022-11-30T08:44:11.440Z,86.63
2022-11-30T08:46:51.603Z,87.19
2022-11-30T08:49:27.812Z,86.63
2022-11-30T08:57:35.095Z,85.51
2022-11-30T09:00:04.144Z,84.67
2022-11-30T09:02:31.947Z,83.40
2022-11-30T09:05:00.510Z,83.07
2022-11-30T09:07:29.223Z,83.83
2022-11-30T09:09:57.904Z,84.33
2022-11-30T09:12:26.475Z,81.98
2022-11-30T09:14:58.228Z,81.86
2022-11-30T09:17:27.369Z,81.85
2022-11-30T09:19:56.878Z,81.04
2022-11-30T09:22:25.533Z,81.74
2022-11-30T09:24:53.298Z,82.37
2022-11-30T09:27:22.120Z,81.43
2022-11-30T09:29:51.684Z,80.87
2022-11-30T09:32:20.238Z,81.57
2022-11-30T09:34:50.170Z,81.08
2022-11-30T09:37:19.452Z,80.44
2022-11-30T09:39:48.085Z,81.67
2022-11-30T09:42:43.996Z,80.95
2022-11-30T09:45:24.555Z,80.54
2022-11-30T09:48:33.301Z,81.95
2022-11-30T09:51:25.436Z,81.42
2022-11-30T09:54:08.002Z,81.17
2022-11-30T09:56:39.437Z,80.61
2022-11-30T09:59:29.695Z,80.46
2022-11-30T10:02:07.505Z,81.03
2022-11-30T10:04:36.895Z,79.63
2022-11-30T10:07:11.279Z,80.38
2022-11-30T10:13:45.159Z,81.05
2022-11-30T10:16:44.187Z,80.05
2022-11-30T10:20:22.802Z,80.24
2022-11-30T10:24:06.345Z,80.17
2022-11-30T10:26:38.516Z,80.88
2022-11-30T10:29:38.816Z,82.65
2022-11-30T10:32:37.011Z,81.47
2022-11-30T10:35:37.988Z,82.52
2022-11-30T10:38:35.676Z,81.99
2022-11-30T10:41:25.480Z,82.51
2022-11-30T10:44:03.603Z,81.52
2022-11-30T10:46:42.663Z,81.71
2022-11-30T10:49:20.138Z,82.22
2022-11-30T10:51:58.554Z,83.11
2022-11-30T10:54:26.420Z,81.94
2022-11-30T10:56:54.122Z,82.17
2022-11-30T10:59:45.719Z,82.84
2022-11-30T11:02:51.721Z,83.26
2022-11-30T11:05:28.133Z,83.29
2022-11-30T11:08:07.241Z,82.73
2022-11-30T11:10:52.792Z,82.16
2022-11-30T11:13:43.801Z,82.21
2022-11-30T11:16:14.057Z,82.49
2022-11-30T11:18:57.596Z,81.41
2022-11-30T11:21:25.838Z,81.85
2022-11-30T11:23:58.856Z,82.41
2022-11-30T11:26:29.639Z,81.68
2022-11-30T11:28:59.715Z,81.41
2022-11-30T11:31:41.105Z,80.17
2022-11-30T11:34:36.889Z,81.90
2022-11-30T11:37:33.851Z,81.05
2022-11-30T11:40:20.908Z,81.05
2022-11-30T11:42:54.926Z,80.90
2022-11-30T11:45:31.189Z,81.01
2022-11-30T11:48:00.041Z,79.61
2022-11-30T11:51:05.567Z,80.08
2022-11-30T11:53:53.926Z,79.92
2022-11-30T11:56:35.648Z,79.82
2022-11-30T11:59:13.395Z,79.48
2022-11-30T12:02:31.361Z,79.13
2022-11-30T12:05:17.181Z,77.41
2022-11-30T12:08:08.947Z,76.90
2022-11-30T12:10:57.323Z,75.88
2022-11-30T12:13:38.984Z,76.31
2022-11-30T12:16:17.211Z,75.67
2022-11-30T12:19:10.561Z,76.04
2022-11-30T12:22:39.618Z,76.22
2022-11-30T12:25:32.607Z,78.51
2022-11-30T12:28:28.136Z,75.54
2022-11-30T12:32:13.596Z,76.42
2022-11-30T12:35:17.813Z,75.53
2022-11-30T12:38:56.270Z,75.66
2022-11-30T12:41:40.724Z,75.37
2022-11-30T12:44:43.550Z,74.46
2022-11-30T12:48:19.833Z,75.49
2022-11-30T12:51:28.039Z,76.34
2022-11-30T12:54:42.010Z,75.67
2022-11-30T12:57:21.736Z,75.06
2022-11-30T13:03:12.966Z,75.65
2022-11-30T13:05:58.018Z,75.96
2022-11-30T13:09:03.741Z,75.79
2022-11-30T13:11:41.985Z,75.74
2022-11-30T13:14:23.641Z,76.74
2022-11-30T13:17:16.280Z,75.37
2022-11-30T13:20:08.707Z,75.74
2022-11-30T13:23:05.718Z,76.66
2022-11-30T13:26:34.548Z,76.63
2022-11-30T13:29:45.089Z,76.70
2022-11-30T13:32:34.282Z,77.04
2022-11-30T13:35:29.631Z,76.85
2022-11-30T13:38:34.532Z,77.65
2022-11-30T13:41:03.208Z,76.94
2022-11-30T13:43:57.221Z,76.67
2022-11-30T13:46:25.786Z,77.27
2022-11-30T13:49:29.714Z,76.60
2022-11-30T13:52:21.389Z,77.73
2022-11-30T13:54:54.695Z,77.51
2022-11-30T13:57:30.365Z,77.42
2022-11-30T14:00:05.181Z,77.55
2022-11-30T14:05:32.409Z,78.52
2022-11-30T14:08:00.134Z,78.82
2022-11-30T14:10:41.749Z,83.21
2022-11-30T14:13:10.596Z,81.17
2022-11-30T14:15:42.363Z,80.35
2022-11-30T14:18:10.192Z,79.07
2022-11-30T14:21:12.694Z,81.23
2022-11-30T14:24:14.984Z,83.26
2022-11-30T14:26:49.385Z,80.04
2022-11-30T14:29:31.844Z,78.55
2022-11-30T14:32:13.660Z,81.85
2022-11-30T14:35:19.643Z,80.92
2022-11-30T14:37:59.224Z,79.15
2022-11-30T14:40:31.130Z,77.96
2022-11-30T14:43:02.647Z,77.73
2022-11-30T14:45:34.497Z,77.43
2022-11-30T14:48:18.531Z,76.93
2022-11-30T14:51:00.173Z,77.40
2022-11-30T14:53:54.614Z,77.79
2022-11-30T14:56:36.419Z,77.54
2022-11-30T14:59:45.681Z,77.03
2022-11-30T15:02:39.070Z,76.66
2022-11-30T15:05:22.856Z,77.54
2022-11-30T15:07:52.076Z,77.01
2022-11-30T15:10:31.609Z,76.71
2022-11-30T15:13:02.697Z,75.36
2022-11-30T15:15:31.683Z,76.35
2022-11-30T15:18:23.977Z,75.07
2022-11-30T15:20:57.106Z,75.18
2022-11-30T15:23:25.109Z,75.05
2022-11-30T15:26:06.593Z,76.72
2022-11-30T15:28:45.177Z,76.50
2022-11-30T15:31:17.631Z,77.47
2022-11-30T15:33:49.266Z,77.98
2022-11-30T15:36:34.011Z,78.92
2022-11-30T15:39:22.647Z,78.72
2022-11-30T15:42:04.946Z,78.27
2022-11-30T15:44:45.614Z,80.13
2022-11-30T15:47:37.233Z,79.48
2022-11-30T15:50:29.976Z,80.30
2022-11-30T15:53:31.972Z,81.55
2022-11-30T15:56:09.577Z,81.98
2022-11-30T15:59:26.506Z,82.25
2022-11-30T16:02:21.739Z,82.25
2022-11-30T16:05:15.705Z,82.73
2022-11-30T16:08:03.787Z,81.94
2022-11-30T16:10:40.510Z,80.95
2022-11-30T16:13:16.409Z,81.35
2022-11-30T16:15:49.300Z,82.32
2022-11-30T16:18:26.322Z,82.27
2022-11-30T16:21:01.200Z,82.17
2022-11-30T16:23:31.279Z,83.93
2022-11-30T16:26:00.339Z,84.42
2022-11-30T16:28:29.912Z,84.22
2022-11-30T16:31:01.582Z,84.85
2022-11-30T16:33:30.564Z,85.26
2022-11-30T16:36:10.159Z,85.52
2022-11-30T16:38:38.916Z,86.98
2022-11-30T16:41:28.876Z,87.04
2022-11-30T16:43:58.356Z,86.21
2022-11-30T16:46:30.248Z,85.99
2022-11-30T16:48:59.749Z,86.36
2022-11-30T16:51:36.559Z,86.89
2022-11-30T16:54:06.126Z,86.85
2022-11-30T16:56:35.957Z,89.75
2022-11-30T16:59:05.493Z,91.84
2022-11-30T17:01:47.470Z,92.90
2022-11-30T17:04:32.960Z,93.37
2022-11-30T17:07:03.014Z,94.10
2022-11-30T17:09:34.708Z,90.97
2022-11-30T17:12:04.542Z,92.71
2022-11-30T17:14:34.054Z,92.39
2022-11-30T17:17:03.760Z,94.02
2022-11-30T17:19:34.350Z,94.91
2022-11-30T17:22:04.329Z,94.33
2022-11-30T17:24:34.735Z,93.14
2022-11-30T17:27:05.812Z,94.67
2022-11-30T17:29:37.709Z,95.00
2022-11-30T17:32:08.126Z,95.03
2022-11-30T17:34:37.777Z,93.27
2022-11-30T17:37:07.437Z,92.27
2022-11-30T17:39:37.609Z,93.46
2022-11-30T17:42:07.157Z,94.87
2022-11-30T17:44:37.154Z,92.19
2022-11-30T17:47:06.745Z,92.16
2022-11-30T17:49:36.346Z,93.62
2022-11-30T17:52:06.086Z,95.00
2022-11-30T17:54:35.816Z,94.76
2022-11-30T17:57:05.408Z,96.44
2022-11-30T17:59:35.048Z,97.15
2022-11-30T18:02:05.141Z,97.40
2022-11-30T18:04:34.825Z,98.88
2022-11-30T18:07:05.530Z,99.58
2022-11-30T18:09:40.827Z,98.47
2022-11-30T18:12:13.321Z,97.95
2022-11-30T18:14:43.746Z,98.92
2022-11-30T18:17:13.346Z,99.62
2022-11-30T18:19:41.196Z,99.19
2022-11-30T18:22:11.768Z,99.21
2022-11-30T18:24:39.656Z,99.20
2022-11-30T18:27:10.083Z,99.52
2022-11-30T18:29:39.661Z,99.88
2022-11-30T18:32:10.498Z,100.00
2022-11-30T18:34:40.358Z,100.00
2022-11-30T18:37:09.901Z,97.59
2022-11-30T18:39:37.674Z,96.41
2022-11-30T18:42:09.143Z,95.42
2022-11-30T18:44:37.783Z,95.48
2022-11-30T18:47:07.268Z,93.83
2022-11-30T18:49:36.743Z,94.01
2022-11-30T18:52:06.153Z,91.26
2022-11-30T18:54:36.397Z,91.03
2022-11-30T18:57:06.028Z,90.15
2022-11-30T18:59:34.727Z,90.93
2022-11-30T19:02:02.596Z,91.30
2022-11-30T19:04:32.421Z,90.87
2022-11-30T19:07:01.886Z,90.69
2022-11-30T19:09:31.886Z,90.32
2022-11-30T19:12:00.517Z,92.33
2022-11-30T19:14:29.339Z,91.50
2022-11-30T19:17:00.708Z,91.22
2022-11-30T19:19:30.397Z,90.58
2022-11-30T19:21:59.964Z,90.86
2022-11-30T19:24:29.517Z,90.08
2022-11-30T19:26:58.999Z,91.15
2022-11-30T19:29:27.668Z,90.95
2022-11-30T19:31:55.462Z,90.90
2022-11-30T19:34:23.263Z,90.29
2022-11-30T19:36:52.035Z,90.57
2022-11-30T19:39:20.727Z,89.67
2022-11-30T19:41:49.465Z,91.55
2022-11-30T19:44:18.969Z,91.63
2022-11-30T19:46:48.451Z,91.69
2022-11-30T19:49:18.059Z,90.63
2022-11-30T19:51:46.681Z,91.14
2022-11-30T19:54:15.879Z,91.53
2022-11-30T19:56:44.672Z,90.27
2022-11-30T19:59:13.320Z,89.45
2022-11-30T20:01:42.853Z,90.18
2022-11-30T20:04:11.617Z,90.09
2022-11-30T20:06:41.198Z,89.33
2022-11-30T20:09:11.976Z,90.17
2022-11-30T20:11:40.750Z,91.56
2022-11-30T20:14:17.167Z,92.43
2022-11-30T20:16:46.755Z,91.96
2022-11-30T20:19:17.419Z,90.37
2022-11-30T20:21:48.564Z,89.82
2022-11-30T20:24:18.226Z,90.86
2022-11-30T20:26:47.790Z,90.78
2022-11-30T20:29:19.025Z,90.23
2022-11-30T20:31:50.213Z,90.06
2022-11-30T20:34:19.029Z,90.04
2022-11-30T20:36:48.643Z,89.73
2022-11-30T20:39:18.283Z,90.27
2022-11-30T20:41:47.757Z,90.24
2022-11-30T20:44:16.499Z,89.91
2022-11-30T20:46:46.044Z,89.65
2022-11-30T20:49:21.360Z,89.28
2022-11-30T20:51:50.242Z,88.32
2022-11-30T20:54:21.148Z,88.57
2022-11-30T20:56:51.345Z,88.14
2022-11-30T20:59:23.887Z,88.75
2022-11-30T21:01:56.367Z,88.94
2022-11-30T21:04:26.828Z,87.91
2022-11-30T21:06:56.428Z,88.68
2022-11-30T21:09:25.949Z,89.05
2022-11-30T21:11:55.321Z,87.39
2022-11-30T21:14:24.291Z,87.52
2022-11-30T21:16:53.477Z,87.30
2022-11-30T21:19:23.007Z,87.38
2022-11-30T21:21:51.810Z,88.70
2022-11-30T21:24:21.244Z,87.68
2022-11-30T21:26:50.797Z,89.03
2022-11-30T21:29:20.314Z,88.62
2022-11-30T21:31:49.067Z,89.71
2022-11-30T21:34:18.529Z,89.82
2022-11-30T21:36:49.074Z,90.09
2022-11-30T21:39:18.186Z,90.02
2022-11-30T21:41:47.807Z,89.71
2022-11-30T21:44:17.684Z,89.59
2022-11-30T21:46:47.669Z,90.29
2022-11-30T21:49:17.325Z,91.31
2022-11-30T21:51:47.900Z,93.17
2022-11-30T21:54:16.609Z,94.46
2022-11-30T21:56:46.123Z,94.88
2022-11-30T21:59:15.466Z,96.16
2022-11-30T22:01:45.870Z,94.94
2022-11-30T22:04:16.180Z,93.50
2022-11-30T22:06:45.803Z,93.54
2022-11-30T22:09:17.477Z,93.78
2022-11-30T22:11:47.141Z,93.05
2022-11-30T22:14:17.680Z,93.27
2022-11-30T22:16:46.520Z,93.41
2022-11-30T22:19:18.400Z,95.07
2022-11-30T22:21:49.975Z,94.69
2022-11-30T22:24:21.071Z,95.52
2022-11-30T22:26:49.429Z,94.49
2022-11-30T22:29:24.705Z,94.22
2022-11-30T22:31:55.373Z,94.41
2022-11-30T22:34:25.051Z,94.25
2022-11-30T22:36:53.794Z,93.12
2022-11-30T22:39:22.754Z,95.63
2022-11-30T22:41:55.734Z,96.72
2022-11-30T22:44:26.577Z,94.77
2022-11-30T22:46:56.348Z,94.42
2022-11-30T22:49:26.031Z,95.06
2022-11-30T22:51:55.563Z,96.56
2022-11-30T22:54:24.290Z,96.07
2022-11-30T22:56:53.749Z,94.75
2022-11-30T22:59:22.419Z,95.33
2022-11-30T23:01:51.614Z,95.41
2022-11-30T23:04:25.063Z,94.88
2022-11-30T23:06:54.849Z,96.11
2022-11-30T23:09:24.929Z,97.53
2022-11-30T23:11:54.403Z,98.90
2022-11-30T23:14:23.223Z,98.35
2022-11-30T23:16:51.849Z,98.34
2022-11-30T23:19:21.301Z,97.47
2022-11-30T23:21:50.795Z,97.47
2022-11-30T23:24:21.635Z,97.54
2022-11-30T23:26:50.985Z,97.77
2022-11-30T23:29:19.754Z,98.00
2022-11-30T23:31:49.366Z,97.29
2022-11-30T23:34:22.414Z,98.14
2022-11-30T23:36:52.242Z,97.37
2022-11-30T23:39:21.309Z,96.98
2022-11-30T23:41:51.072Z,97.80
2022-11-30T23:44:20.525Z,97.90
2022-11-30T23:46:50.010Z,98.00
2022-11-30T23:49:19.563Z,97.85
2022-11-30T23:51:48.351Z,97.08
2022-11-30T23:54:17.929Z,95.01
2022-11-30T23:56:47.418Z,96.34
2022-11-30T23:59:16.990Z,97.58
